Time;durP1;ratioP1;P1;durP2;ratioP2;P2;SDS_P1;SDS_P2;PMS_P1;PMS_P2;Temp;Humidity;BMP_temperature;BMP_pressure;BME280_temperature;BME280_humidity;BME280_pressure;Samples;Min_cycle;Max_cycle;Signal;HPM_P1;HPM_P2
2023/05/15 00:01:26;;;;;;;1999.90;999.90;;;14.00;99.90;;;;;;5096148;28;20473;-73
2023/05/15 00:03:51;;;;;;;1999.90;999.90;;;14.00;99.90;;;;;;5096102;28;20114;-73
2023/05/15 00:06:17;;;;;;;1999.90;999.90;;;14.00;99.90;;;;;;5096363;28;20044;-73
2023/05/15 00:08:43;;;;;;;1999.90;999.90;;;14.00;99.90;;;;;;5086563;28;20606;-77
2023/05/15 00:11:09;;;;;;;1999.90;999.90;;;14.00;99.90;;;;;;5075045;28;20126;-73
2023/05/15 00:13:37;;;;;;;1999.90;999.90;;;13.90;99.90;;;;;;5075644;28;20100;-73
2023/05/15 00:16:06;;;;;;;1999.90;999.90;;;13.90;99.90;;;;;;5079444;28;20020;-77
2023/05/15 00:18:32;;;;;;;1999.90;999.90;;;13.90;99.90;;;;;;5096492;28;20031;-77
2023/05/15 00:20:58;;;;;;;1999.90;999.90;;;13.90;99.90;;;;;;5096474;28;20044;-77
2023/05/15 00:23:23;;;;;;;1999.90;999.90;;;13.90;99.90;;;;;;5095656;28;20104;-73
2023/05/15 00:25:49;;;;;;;1999.90;999.90;;;13.90;99.90;;;;;;5095142;28;20032;-73
2023/05/15 00:28:15;;;;;;;1999.90;999.90;;;13.90;99.90;;;;;;5095431;28;20020;-73
2023/05/15 00:30:40;;;;;;;1999.90;999.90;;;13.90;99.90;;;;;;5095916;28;20024;-73
2023/05/15 00:33:06;;;;;;;1999.90;999.90;;;13.90;99.90;;;;;;5095784;28;20020;-77
2023/05/15 00:35:32;;;;;;;1999.90;999.90;;;13.90;99.90;;;;;;5094270;28;20032;-77
2023/05/15 00:37:58;;;;;;;1999.90;999.90;;;13.90;99.90;;;;;;5095570;28;20020;-73
2023/05/15 00:40:25;;;;;;;1999.90;999.90;;;13.90;99.90;;;;;;5095762;28;20086;-73
2023/05/15 00:42:52;;;;;;;1999.90;999.90;;;13.90;99.90;;;;;;5095966;28;20020;-77
2023/05/15 00:45:18;;;;;;;1999.90;999.90;;;13.90;99.90;;;;;;5094077;28;20126;-77
2023/05/15 00:47:44;;;;;;;1999.90;999.90;;;13.90;99.90;;;;;;5075072;28;20099;-77
2023/05/15 00:50:10;;;;;;;1999.90;999.90;;;13.90;99.90;;;;;;5075301;28;20028;-73
2023/05/15 00:52:36;;;;;;;1999.90;999.90;;;13.90;99.90;;;;;;5075275;28;20031;-73
2023/05/15 00:55:03;;;;;;;1999.90;999.90;;;13.90;99.90;;;;;;5075215;28;20036;-77
2023/05/15 00:57:30;;;;;;;1999.90;999.90;;;13.90;99.90;;;;;;5075219;28;20016;-77
2023/05/15 00:59:56;;;;;;;1999.90;999.90;;;13.80;99.90;;;;;;5074815;28;20016;-73
2023/05/15 01:02:22;;;;;;;1999.90;999.90;;;13.80;99.90;;;;;;5087992;28;20024;-74
2023/05/15 01:04:48;;;;;;;1999.90;999.90;;;13.80;99.90;;;;;;5074746;28;20060;-73
2023/05/15 01:07:14;;;;;;;1999.90;999.90;;;13.90;99.90;;;;;;5074453;28;20045;-73
2023/05/15 01:09:43;;;;;;;1999.90;999.90;;;13.90;99.90;;;;;;5074732;28;20039;-77
2023/05/15 01:12:09;;;;;;;1999.90;999.90;;;13.80;99.90;;;;;;5074574;28;20033;-77
2023/05/15 01:14:35;;;;;;;1999.90;999.90;;;13.80;99.90;;;;;;5074097;28;20032;-77
2023/05/15 01:17:00;;;;;;;1999.90;999.90;;;13.80;99.90;;;;;;5086149;28;20075;-73
2023/05/15 01:19:26;;;;;;;1999.90;999.90;;;13.80;99.90;;;;;;5094315;28;20057;-73
2023/05/15 01:22:27;;;;;;;1999.90;999.90;;;13.80;99.90;;;;;;5095027;28;20020;-73
2023/05/15 01:24:58;;;;;;;1999.90;999.90;;;13.80;99.90;;;;;;5060564;28;20097;-77
2023/05/15 01:27:34;;;;;;;1999.90;999.90;;;13.70;99.90;;;;;;5094640;28;20026;-76
2023/05/15 01:30:24;;;;;;;1999.90;999.90;;;13.70;99.90;;;;;;5094229;28;20535;-77
2023/05/15 01:33:19;;;;;;;1999.90;999.90;;;13.70;99.90;;;;;;5093386;28;20384;-73
2023/05/15 01:35:51;;;;;;;1999.90;999.90;;;13.70;99.90;;;;;;5094485;28;20486;-77
2023/05/15 01:38:28;;;;;;;1999.90;999.90;;;13.70;99.90;;;;;;5093344;28;20020;-77
2023/05/15 01:41:10;;;;;;;1999.90;999.90;;;13.70;99.90;;;;;;5093398;28;20020;-77
2023/05/15 01:43:39;;;;;;;1999.90;999.90;;;13.70;99.90;;;;;;5094449;28;20103;-73
2023/05/15 01:46:06;;;;;;;1999.90;999.90;;;13.70;99.90;;;;;;5092156;28;20065;-73
2023/05/15 01:48:35;;;;;;;1999.90;999.90;;;13.70;99.90;;;;;;5094201;28;20021;-76
2023/05/15 01:51:03;;;;;;;1999.90;999.90;;;13.80;99.90;;;;;;5093062;28;20018;-77
2023/05/15 01:53:33;;;;;;;1999.90;999.90;;;13.70;99.90;;;;;;5094297;28;20028;-76
2023/05/15 01:55:59;;;;;;;1999.90;999.90;;;13.80;99.90;;;;;;5092964;28;20038;-73
2023/05/15 01:58:26;;;;;;;1999.90;999.90;;;13.70;99.90;;;;;;5094460;28;20028;-76
2023/05/15 02:00:52;;;;;;;1999.90;999.90;;;13.80;99.90;;;;;;5093853;28;20027;-77
2023/05/15 02:03:19;;;;;;;1999.90;999.90;;;13.80;99.90;;;;;;5085918;28;20024;-77
2023/05/15 02:05:46;;;;;;;1999.90;999.90;;;13.70;99.90;;;;;;5073460;28;20045;-76
2023/05/15 02:08:12;;;;;;;1999.90;999.90;;;13.70;99.90;;;;;;5078927;28;20028;-73
2023/05/15 02:10:38;;;;;;;1999.90;999.90;;;13.80;99.90;;;;;;5093797;28;20410;-73
2023/05/15 02:13:07;;;;;;;1999.90;999.90;;;13.70;99.90;;;;;;5093687;28;20028;-77
2023/05/15 02:15:33;;;;;;;1999.90;999.90;;;13.70;99.90;;;;;;5092118;28;20020;-77
2023/05/15 02:17:59;;;;;;;1999.90;999.90;;;13.70;99.90;;;;;;5094076;28;20036;-77
2023/05/15 02:20:25;;;;;;;1999.90;999.90;;;13.70;99.90;;;;;;5093995;28;20506;-76
2023/05/15 02:22:50;;;;;;;1999.90;999.90;;;13.70;99.90;;;;;;5093667;28;20036;-77
2023/05/15 02:25:16;;;;;;;1999.90;999.90;;;13.70;99.90;;;;;;5093887;28;20036;-73
2023/05/15 02:27:56;;;;;;;1999.90;999.90;;;13.60;99.90;;;;;;5094042;28;20467;-77
2023/05/15 02:30:41;;;;;;;1999.90;999.90;;;13.60;99.90;;;;;;5093460;28;20065;-73
2023/05/15 02:33:53;;;;;;;1999.90;999.90;;;13.60;99.90;;;;;;5093976;28;20027;-77
2023/05/15 02:36:30;;;;;;;1999.90;999.90;;;13.60;99.90;;;;;;5046302;28;20031;-73
2023/05/15 02:38:58;;;;;;;1999.90;999.90;;;13.50;99.90;;;;;;5093413;28;20031;-73
2023/05/15 02:41:24;;;;;;;1999.90;999.90;;;13.50;99.90;;;;;;5093725;28;20471;-76
2023/05/15 02:43:51;;;;;;;1999.90;999.90;;;13.50;99.90;;;;;;5092630;28;20020;-76
2023/05/15 02:46:19;;;;;;;1999.90;999.90;;;13.50;99.90;;;;;;5085579;28;20031;-77
2023/05/15 02:48:46;;;;;;;1999.90;999.90;;;13.40;99.90;;;;;;5093723;28;20024;-73
2023/05/15 02:51:12;;;;;;;1999.90;999.90;;;13.40;99.90;;;;;;5093557;28;20390;-77
2023/05/15 02:53:41;;;;;;;1999.90;999.90;;;13.30;99.90;;;;;;5093757;28;20039;-73
2023/05/15 02:56:07;;;;;;;1999.90;999.90;;;13.40;99.90;;;;;;5093223;28;20486;-77
2023/05/15 02:58:33;;;;;;;1999.90;999.90;;;13.30;99.90;;;;;;5093107;28;20031;-76
2023/05/15 03:00:59;;;;;;;1999.90;999.90;;;13.40;99.90;;;;;;5093088;28;20074;-73
2023/05/15 03:03:25;;;;;;;1999.90;999.90;;;13.30;99.90;;;;;;5092973;28;20044;-74
2023/05/15 03:05:51;;;;;;;1999.90;999.90;;;13.30;99.90;;;;;;5092765;28;20084;-77
2023/05/15 03:08:18;;;;;;;1999.90;999.90;;;13.30;99.90;;;;;;5087590;28;20025;-77
2023/05/15 03:10:43;;;;;;;1999.90;999.90;;;13.20;99.90;;;;;;5071507;28;20017;-77
2023/05/15 03:13:09;;;;;;;1999.90;999.90;;;13.20;99.90;;;;;;5072957;28;20029;-73
2023/05/15 03:15:35;;;;;;;1999.90;999.90;;;13.20;99.90;;;;;;5071810;28;20020;-77
2023/05/15 03:18:01;;;;;;;1999.90;999.90;;;13.20;99.90;;;;;;5091428;28;20115;-77
2023/05/15 03:20:27;;;;;;;1999.90;999.90;;;13.20;99.90;;;;;;5092012;28;20125;-76
2023/05/15 03:22:52;;;;;;;1999.90;999.90;;;13.30;99.90;;;;;;5091861;28;20483;-77
2023/05/15 03:25:18;;;;;;;1999.90;999.90;;;13.40;99.90;;;;;;5091392;28;20081;-77
2023/05/15 03:27:43;;;;;;;1999.90;999.90;;;13.40;99.90;;;;;;5093062;28;20024;-73
2023/05/15 03:30:09;;;;;;;1999.90;999.90;;;13.40;99.90;;;;;;5097303;28;20016;-73
2023/05/15 03:32:35;;;;;;;1999.90;999.90;;;13.30;99.90;;;;;;5096992;28;20028;-77
2023/05/15 03:35:01;;;;;;;1999.90;999.90;;;13.30;99.90;;;;;;5097015;28;20028;-73
2023/05/15 03:37:27;;;;;;;1999.90;999.90;;;13.40;99.90;;;;;;5096981;28;20036;-74
2023/05/15 03:39:52;;;;;;;1999.90;999.90;;;13.40;99.90;;;;;;5096843;28;20031;-73
2023/05/15 03:42:22;;;;;;;1999.90;999.90;;;13.40;99.90;;;;;;5095564;28;20028;-73
2023/05/15 03:44:48;;;;;;;1999.90;999.90;;;13.40;99.90;;;;;;5090941;28;20070;-73
2023/05/15 03:47:14;;;;;;;1999.90;999.90;;;13.40;99.90;;;;;;5088592;28;20421;-73
2023/05/15 03:49:40;;;;;;;1999.90;999.90;;;13.50;99.90;;;;;;5096689;28;20012;-73
2023/05/15 03:52:06;;;;;;;1999.90;999.90;;;13.50;99.90;;;;;;5096727;28;20124;-73
2023/05/15 03:54:32;;;;;;;1999.90;999.90;;;13.50;99.90;;;;;;5096534;28;20020;-73
2023/05/15 03:56:58;;;;;;;1999.90;999.90;;;13.50;99.90;;;;;;5096731;28;20039;-73
2023/05/15 03:59:23;;;;;;;1999.90;999.90;;;13.50;99.90;;;;;;5096411;28;20099;-73
2023/05/15 04:01:49;;;;;;;1999.90;999.90;;;13.50;99.90;;;;;;5096122;28;20036;-77
2023/05/15 04:04:14;;;;;;;1999.90;999.90;;;13.50;99.90;;;;;;5096640;28;20031;-77
2023/05/15 04:06:40;;;;;;;1999.90;999.90;;;13.50;99.90;;;;;;5095995;28;20052;-73
2023/05/15 04:09:05;;;;;;;1999.90;999.90;;;13.50;99.90;;;;;;5096358;28;20023;-73
2023/05/15 04:11:33;;;;;;;1999.90;999.90;;;13.40;99.90;;;;;;5096161;28;20032;-73
2023/05/15 04:13:59;;;;;;;1999.90;999.90;;;13.40;99.90;;;;;;5096272;28;20016;-77
2023/05/15 04:16:25;;;;;;;1999.90;999.90;;;13.40;99.90;;;;;;5095281;28;20060;-77
2023/05/15 04:18:50;;;;;;;1999.90;999.90;;;13.30;99.90;;;;;;5094612;28;20062;-73
2023/05/15 04:21:16;;;;;;;1999.90;999.90;;;13.30;99.90;;;;;;5095917;28;20036;-73
2023/05/15 04:23:42;;;;;;;1999.90;999.90;;;13.30;99.90;;;;;;5095039;28;20024;-73
2023/05/15 04:26:08;;;;;;;1999.90;999.90;;;13.40;99.90;;;;;;5096173;28;20094;-77
2023/05/15 04:28:33;;;;;;;1999.90;999.90;;;13.40;99.90;;;;;;5096028;28;20433;-77
2023/05/15 04:30:59;;;;;;;1999.90;999.90;;;13.40;99.90;;;;;;5095676;28;20077;-77
2023/05/15 04:33:25;;;;;;;1999.90;999.90;;;13.50;99.90;;;;;;5095725;28;20542;-73
2023/05/15 04:35:52;;;;;;;1999.90;999.90;;;13.40;99.90;;;;;;5095637;28;20108;-77
2023/05/15 04:38:17;;;;;;;1999.90;999.90;;;13.50;99.90;;;;;;5094177;28;20052;-77
2023/05/15 04:40:43;;;;;;;1999.90;999.90;;;13.50;99.90;;;;;;5095765;28;20067;-77
2023/05/15 04:43:09;;;;;;;1999.90;999.90;;;13.40;99.90;;;;;;5095393;28;20471;-73
2023/05/15 04:45:34;;;;;;;1999.90;999.90;;;13.40;99.90;;;;;;5091228;28;20032;-73
2023/05/15 04:48:00;;;;;;;1999.90;999.90;;;13.50;99.90;;;;;;5095451;28;20048;-73
2023/05/15 04:50:26;;;;;;;1999.90;999.90;;;13.50;99.90;;;;;;5095784;28;20031;-77
2023/05/15 04:52:51;;;;;;;1999.90;999.90;;;13.60;99.90;;;;;;5095151;28;20024;-77
2023/05/15 04:55:17;;;;;;;1999.90;999.90;;;13.60;99.90;;;;;;5095221;28;20032;-77
2023/05/15 04:57:42;;;;;;;1999.90;999.90;;;13.60;99.90;;;;;;5089895;28;20073;-73
2023/05/15 05:00:11;;;;;;;1999.90;999.90;;;13.70;99.90;;;;;;5095164;28;20416;-73
2023/05/15 05:02:37;;;;;;;1999.90;999.90;;;13.70;99.90;;;;;;5075415;28;20054;-73
2023/05/15 05:05:05;;;;;;;1999.90;999.90;;;13.70;99.90;;;;;;5092406;28;20111;-77
2023/05/15 05:07:30;;;;;;;1999.90;999.90;;;13.70;99.90;;;;;;5094383;28;20037;-73
2023/05/15 05:09:56;;;;;;;1999.90;999.90;;;13.70;99.90;;;;;;5090902;28;20032;-73
2023/05/15 05:12:21;;;;;;;1999.90;999.90;;;13.60;99.90;;;;;;5094697;28;20020;-73
2023/05/15 05:14:47;;;;;;;1999.90;999.90;;;13.60;99.90;;;;;;5094752;28;20033;-77
2023/05/15 05:17:13;;;;;;;1999.90;999.90;;;13.50;99.90;;;;;;5080833;28;20028;-77
2023/05/15 05:19:38;;;;;;;1999.90;999.90;;;13.40;99.90;;;;;;5086412;28;20123;-77
2023/05/15 05:22:04;;;;;;;1999.90;999.90;;;13.40;99.90;;;;;;5094128;28;20474;-77
2023/05/15 05:24:36;;;;;;;1999.90;999.90;;;13.40;99.90;;;;;;5082846;28;20036;-73
2023/05/15 05:27:02;;;;;;;1999.90;999.90;;;13.30;99.90;;;;;;5073923;28;20031;-73
2023/05/15 05:29:29;;;;;;;1999.90;999.90;;;13.30;99.90;;;;;;5085009;28;20436;-77
2023/05/15 05:31:55;;;;;;;1999.90;999.90;;;13.30;99.90;;;;;;5094215;28;20019;-77
2023/05/15 05:34:21;;;;;;;1999.90;999.90;;;13.30;99.90;;;;;;5094603;28;20016;-77
2023/05/15 05:36:47;;;;;;;1999.90;999.90;;;13.30;99.90;;;;;;5080422;28;20497;-77
2023/05/15 05:39:15;;;;;;;1999.90;999.90;;;13.40;99.90;;;;;;5083903;28;20036;-74
2023/05/15 05:41:41;;;;;;;1999.90;999.90;;;13.40;99.90;;;;;;5093298;28;20556;-73
2023/05/15 05:44:07;;;;;;;1999.90;999.90;;;13.50;99.90;;;;;;5074934;28;20028;-76
2023/05/15 05:46:32;;;;;;;1999.90;999.90;;;13.50;99.90;;;;;;5086916;28;20467;-77
2023/05/15 05:48:58;;;;;;;1999.90;999.90;;;13.50;99.90;;;;;;5073327;28;20109;-76
2023/05/15 05:51:24;;;;;;;1999.90;999.90;;;13.40;99.90;;;;;;5072677;28;20143;-74
2023/05/15 05:53:49;;;;;;;1999.90;999.90;;;13.40;99.90;;;;;;5072182;28;20028;-76
2023/05/15 05:56:15;;;;;;;1999.90;999.90;;;13.40;99.90;;;;;;5072238;28;20064;-77
2023/05/15 05:58:41;;;;;;;1999.90;999.90;;;13.50;99.90;;;;;;5086864;28;20491;-73
2023/05/15 06:01:07;;;;;;;1999.90;999.90;;;13.50;99.90;;;;;;5087340;28;20036;-77
2023/05/15 06:03:33;;;;;;;1999.90;999.90;;;13.50;99.90;;;;;;5072568;28;20090;-73
2023/05/15 06:05:59;;;;;;;1999.90;999.90;;;13.50;99.90;;;;;;5072557;28;20048;-73
2023/05/15 06:08:28;;;;;;;1999.90;999.90;;;13.50;99.90;;;;;;5091091;28;20027;-73
2023/05/15 06:10:53;;;;;;;1999.90;999.90;;;13.50;99.90;;;;;;5092512;28;20398;-73
2023/05/15 06:13:19;;;;;;;1999.90;999.90;;;13.60;99.90;;;;;;5079545;28;20028;-76
2023/05/15 06:15:45;;;;;;;1999.90;999.90;;;13.60;99.90;;;;;;5087570;28;20111;-77
2023/05/15 06:18:10;;;;;;;1999.90;999.90;;;13.70;99.90;;;;;;5089888;28;20024;-73
2023/05/15 06:20:37;;;;;;;1999.90;999.90;;;13.90;99.90;;;;;;5081018;28;20077;-73
2023/05/15 06:23:02;;;;;;;1999.90;999.90;;;13.90;99.90;;;;;;5081401;28;20020;-73
2023/05/15 06:25:28;;;;;;;1999.90;999.90;;;14.00;99.90;;;;;;5086241;28;20070;-74
2023/05/15 06:27:54;;;;;;;1999.90;999.90;;;14.20;99.90;;;;;;5079431;28;20050;-74
2023/05/15 06:30:20;;;;;;;1999.90;999.90;;;14.30;99.90;;;;;;5087520;28;20021;-73
2023/05/15 06:32:45;;;;;;;1999.90;999.90;;;14.40;99.90;;;;;;5080846;28;20035;-74
2023/05/15 06:35:11;;;;;;;1999.90;999.90;;;14.40;99.90;;;;;;5088381;28;20031;-77
2023/05/15 06:37:37;;;;;;;1999.90;999.90;;;14.40;99.90;;;;;;5084136;28;20067;-77
2023/05/15 06:40:04;;;;;;;1999.90;999.90;;;14.40;99.90;;;;;;5084131;28;20024;-77
2023/05/15 06:42:30;;;;;;;1999.90;999.90;;;14.50;99.90;;;;;;5079070;28;20028;-74
2023/05/15 06:44:55;;;;;;;1999.90;999.90;;;14.40;99.90;;;;;;5076758;28;20032;-77
2023/05/15 06:47:21;;;;;;;1999.90;999.90;;;14.30;99.90;;;;;;5084727;28;20418;-77
2023/05/15 06:49:47;;;;;;;1999.90;999.90;;;14.30;99.90;;;;;;5091683;28;20063;-77
2023/05/15 06:52:13;;;;;;;1999.90;999.90;;;14.30;99.90;;;;;;5089014;28;20468;-76
2023/05/15 06:54:42;;;;;;;1999.90;999.90;;;14.30;99.90;;;;;;5086398;28;20040;-74
2023/05/15 06:57:07;;;;;;;1999.90;999.90;;;14.40;99.90;;;;;;5072269;28;20047;-74
2023/05/15 06:59:34;;;;;;;1999.90;999.90;;;14.40;99.90;;;;;;5080124;28;20020;-77
2023/05/15 07:02:01;;;;;;;1999.90;999.90;;;14.30;99.90;;;;;;5088801;28;20074;-77
2023/05/15 07:04:27;;;;;;;1999.90;999.90;;;14.20;99.90;;;;;;5089196;28;20503;-77
2023/05/15 07:06:53;;;;;;;1999.90;999.90;;;14.00;99.90;;;;;;5082140;28;20073;-73
2023/05/15 07:09:18;;;;;;;1999.90;999.90;;;14.00;99.90;;;;;;5085658;28;20032;-73
2023/05/15 07:11:44;;;;;;;1999.90;999.90;;;14.00;99.90;;;;;;5079145;28;20058;-73
2023/05/15 07:14:10;;;;;;;1999.90;999.90;;;13.90;99.90;;;;;;5078796;28;20507;-77
2023/05/15 07:16:35;;;;;;;1999.90;999.90;;;14.00;99.90;;;;;;5081762;28;20028;-75
2023/05/15 07:19:01;;;;;;;1999.90;999.90;;;14.00;99.90;;;;;;5087083;28;20035;-77
2023/05/15 07:21:26;;;;;;;1999.90;999.90;;;14.00;99.90;;;;;;5074990;28;20032;-74
2023/05/15 07:23:52;;;;;;;1999.90;999.90;;;14.00;99.90;;;;;;5085022;28;20199;-73
2023/05/15 07:26:17;;;;;;;1999.90;999.90;;;14.00;99.90;;;;;;5082705;28;20048;-78
2023/05/15 07:28:43;;;;;;;1999.90;999.90;;;14.10;99.90;;;;;;5087368;28;20020;-73
2023/05/15 07:31:09;;;;;;;1999.90;999.90;;;14.20;99.90;;;;;;5087099;28;20410;-73
2023/05/15 07:33:34;;;;;;;1999.90;999.90;;;14.30;99.90;;;;;;5085247;28;20021;-73
2023/05/15 07:36:00;;;;;;;1999.90;999.90;;;14.50;99.90;;;;;;5085467;28;20090;-73
2023/05/15 07:38:25;;;;;;;1999.90;999.90;;;14.50;99.90;;;;;;5089841;28;20526;-73
2023/05/15 07:40:51;;;;;;;1999.90;999.90;;;14.70;99.90;;;;;;5086634;28;20051;-79
2023/05/15 07:43:17;;;;;;;1999.90;999.90;;;14.80;99.90;;;;;;5088696;28;20107;-78
2023/05/15 07:45:42;;;;;;;1999.90;999.90;;;15.10;99.90;;;;;;5086914;28;20493;-74
2023/05/15 07:48:19;;;;;;;1999.90;999.90;;;15.20;99.90;;;;;;5084302;28;20091;-74
2023/05/15 07:50:45;;;;;;;1999.90;999.90;;;15.50;99.90;;;;;;5079864;28;20491;-78
2023/05/15 07:53:12;;;;;;;1999.90;999.90;;;15.40;99.90;;;;;;5089469;28;20034;-74
2023/05/15 07:55:38;;;;;;;1999.90;999.90;;;16.00;99.90;;;;;;5085171;28;20040;-80
2023/05/15 07:58:03;;;;;;;1999.90;999.90;;;16.20;99.90;;;;;;5080515;28;20040;-79
2023/05/15 08:00:29;;;;;;;1999.90;999.90;;;16.00;99.90;;;;;;5080781;28;20081;-74
2023/05/15 08:02:55;;;;;;;1999.90;999.90;;;16.10;99.90;;;;;;5089329;28;20102;-73
2023/05/15 08:05:20;;;;;;;1999.90;999.90;;;16.60;99.90;;;;;;5081332;28;20114;-73
2023/05/15 08:07:46;;;;;;;1999.90;999.90;;;16.70;99.90;;;;;;5085864;28;20032;-79
2023/05/15 08:10:12;;;;;;;1999.90;999.90;;;16.80;99.90;;;;;;5089621;28;20429;-73
2023/05/15 08:12:37;;;;;;;1999.90;999.90;;;16.80;99.90;;;;;;5083507;28;20056;-73
2023/05/15 08:15:03;;;;;;;1999.90;999.90;;;16.60;99.90;;;;;;5082861;28;20043;-74
2023/05/15 08:17:29;;;;;;;1999.90;999.90;;;16.70;99.90;;;;;;5080442;28;20119;-79
2023/05/15 08:19:54;;;;;;;1999.90;999.90;;;17.00;99.90;;;;;;5084361;28;20055;-78
2023/05/15 08:22:20;;;;;;;1999.90;999.90;;;17.20;99.90;;;;;;5084204;28;20043;-78
2023/05/15 08:24:46;;;;;;;1999.90;999.90;;;17.30;99.90;;;;;;5077726;28;20028;-72
2023/05/15 08:27:12;;;;;;;1999.90;999.90;;;17.20;99.90;;;;;;5085407;28;20036;-74
2023/05/15 08:29:38;;;;;;;1999.90;999.90;;;17.40;99.90;;;;;;5089162;28;20016;-79
2023/05/15 08:32:05;;;;;;;1999.90;999.90;;;17.40;99.90;;;;;;5091464;28;20032;-74
2023/05/15 08:34:31;;;;;;;1999.90;999.90;;;17.80;99.90;;;;;;5092941;28;20032;-80
2023/05/15 08:36:58;;;;;;;1999.90;999.90;;;19.00;99.90;;;;;;5090460;28;20506;-79
2023/05/15 08:39:24;;;;;;;1999.90;999.90;;;20.30;99.90;;;;;;5092438;28;20034;-74
2023/05/15 08:42:07;;;;;;;1999.90;999.90;;;21.00;99.90;;;;;;5093015;28;20034;-74
2023/05/15 08:44:32;;;;;;;1999.90;999.90;;;21.80;99.90;;;;;;5082428;28;20062;-79
2023/05/15 08:46:58;;;;;;;1999.90;999.90;;;21.00;99.90;;;;;;5083997;28;20063;-78
2023/05/15 08:49:49;;;;;;;1999.90;999.90;;;20.60;99.90;;;;;;5089843;28;20028;-78
2023/05/15 08:52:15;;;;;;;1999.90;999.90;;;20.30;99.90;;;;;;5087370;28;20036;-74
2023/05/15 08:54:41;;;;;;;1999.90;999.90;;;20.70;99.90;;;;;;5087187;28;20039;-74
2023/05/15 08:57:09;;;;;;;1999.90;999.90;;;21.00;99.90;;;;;;5081151;28;20441;-77
2023/05/15 08:59:36;;;;;;;1999.90;999.90;;;21.20;99.90;;;;;;5082162;28;20056;-79
2023/05/15 09:02:02;;;;;;;1999.90;999.90;;;20.60;99.90;;;;;;5086442;28;20075;-80
2023/05/15 09:04:28;;;;;;;1999.90;999.90;;;20.40;99.90;;;;;;5085486;28;20059;-74
2023/05/15 09:06:54;;;;;;;1999.90;999.90;;;20.10;99.90;;;;;;5081438;28;20075;-74
2023/05/15 09:09:22;;;;;;;1999.90;999.90;;;20.60;99.90;;;;;;5085206;28;20089;-80
2023/05/15 09:11:49;;;;;;;1999.90;999.90;;;21.00;99.90;;;;;;5085856;28;20585;-74
2023/05/15 09:14:15;;;;;;;1999.90;999.90;;;21.20;99.90;;;;;;5088272;28;20059;-75
2023/05/15 09:16:40;;;;;;;1999.90;999.90;;;21.30;99.90;;;;;;5083853;28;20063;-79
2023/05/15 09:19:06;;;;;;;1999.90;999.90;;;21.90;99.90;;;;;;5071488;28;20052;-75
2023/05/15 09:21:32;;;;;;;1999.90;999.90;;;22.30;99.90;;;;;;5079329;28;20054;-78
2023/05/15 09:24:21;;;;;;;1999.90;999.90;;;22.80;99.90;;;;;;5078656;28;20530;-78
2023/05/15 09:27:01;;;;;;;1999.90;999.90;;;22.80;99.90;;;;;;5080213;28;20032;-79
2023/05/15 09:29:28;;;;;;;1999.90;999.90;;;23.40;99.90;;;;;;5077503;28;20395;-79
2023/05/15 09:31:54;;;;;;;1999.90;999.90;;;23.10;99.90;;;;;;5080423;28;20020;-74
2023/05/15 09:34:29;;;;;;;1999.90;999.90;;;22.80;99.90;;;;;;5081559;28;20101;-75
2023/05/15 09:36:55;;;;;;;1999.90;999.90;;;23.20;99.90;;;;;;5084664;28;20070;-80
2023/05/15 09:39:23;;;;;;;1999.90;999.90;;;23.10;99.90;;;;;;5090345;28;20032;-80
2023/05/15 09:41:51;;;;;;;1999.90;999.90;;;22.30;99.90;;;;;;5087066;28;20538;-79
2023/05/15 09:44:19;;;;;;;1999.90;999.90;;;21.70;99.90;;;;;;5089072;28;20068;-73
2023/05/15 09:46:45;;;;;;;1999.90;999.90;;;21.40;99.90;;;;;;5088336;28;20032;-75
2023/05/15 09:49:11;;;;;;;1999.90;999.90;;;20.60;99.90;;;;;;5075244;28;21650;-78
2023/05/15 09:51:37;;;;;;;1999.90;999.90;;;19.80;99.90;;;;;;5080692;28;20040;-75
2023/05/15 09:54:03;;;;;;;1999.90;999.90;;;19.70;99.90;;;;;;5089291;28;20020;-80
2023/05/15 09:56:28;;;;;;;1999.90;999.90;;;19.80;99.90;;;;;;5087275;28;20112;-75
2023/05/15 09:58:55;;;;;;;1999.90;999.90;;;19.70;99.90;;;;;;5087062;28;20099;-75
2023/05/15 10:01:26;;;;;;;1999.90;999.90;;;19.70;99.90;;;;;;5079800;28;20057;-78
2023/05/15 10:04:02;;;;;;;1999.90;999.90;;;19.70;99.90;;;;;;5089145;28;20124;-75
2023/05/15 10:06:41;;;;;;;1999.90;999.90;;;19.60;99.90;;;;;;5086706;28;20399;-79
2023/05/15 10:09:07;;;;;;;1999.90;999.90;;;19.50;99.90;;;;;;5090126;28;20503;-79
2023/05/15 10:11:35;;;;;;;1999.90;999.90;;;19.60;99.90;;;;;;5085715;28;20482;-76
2023/05/15 10:14:02;;;;;;;1999.90;999.90;;;19.70;99.90;;;;;;5084195;28;20051;-74
2023/05/15 10:16:32;;;;;;;1999.90;999.90;;;19.30;99.90;;;;;;5084643;28;20031;-79
2023/05/15 10:18:59;;;;;;;1999.90;999.90;;;19.00;99.90;;;;;;5088975;28;20034;-78
2023/05/15 10:21:27;;;;;;;1999.90;999.90;;;19.30;99.90;;;;;;5085906;28;20031;-79
2023/05/15 10:23:58;;;;;;;1999.90;999.90;;;19.30;99.90;;;;;;5083586;28;20048;-74
2023/05/15 10:26:29;;;;;;;1999.90;999.90;;;19.30;99.90;;;;;;5083795;28;20024;-75
2023/05/15 10:28:56;;;;;;;1999.90;999.90;;;19.20;99.90;;;;;;5084304;28;20020;-79
2023/05/15 10:31:25;;;;;;;1999.90;999.90;;;19.60;99.90;;;;;;5083407;28;20020;-78
2023/05/15 10:33:52;;;;;;;1999.90;999.90;;;19.60;99.90;;;;;;5086290;28;20020;-81
2023/05/15 10:36:19;;;;;;;1999.90;999.90;;;19.60;99.90;;;;;;5084732;28;20032;-76
2023/05/15 10:38:46;;;;;;;1999.90;999.90;;;19.40;99.90;;;;;;5085262;28;20491;-76
2023/05/15 10:41:16;;;;;;;1999.90;999.90;;;19.30;99.90;;;;;;5090169;28;20032;-75
2023/05/15 10:43:43;;;;;;;1999.90;999.90;;;19.00;99.90;;;;;;5075985;28;20024;-80
2023/05/15 10:46:09;;;;;;;1999.90;999.90;;;18.90;99.90;;;;;;5085030;28;20028;-76
2023/05/15 10:48:36;;;;;;;1999.90;999.90;;;18.70;99.90;;;;;;5085458;28;20430;-75
2023/05/15 10:51:01;;;;;;;1999.90;999.90;;;18.50;99.90;;;;;;5079548;28;20090;-76
2023/05/15 10:53:27;;;;;;;1999.90;999.90;;;18.40;99.90;;;;;;5089933;28;20475;-80
2023/05/15 10:55:53;;;;;;;1999.90;999.90;;;18.60;99.90;;;;;;5091059;28;20036;-76
2023/05/15 10:58:24;;;;;;;1999.90;999.90;;;18.70;99.90;;;;;;5080417;28;20083;-80
2023/05/15 11:00:50;;;;;;;1999.90;999.90;;;18.70;99.90;;;;;;5088511;28;20067;-80
2023/05/15 11:03:35;;;;;;;1999.90;999.90;;;18.90;99.90;;;;;;5084812;28;20060;-76
2023/05/15 11:06:08;;;;;;;1999.90;999.90;;;19.00;99.90;;;;;;5082135;28;20055;-80
2023/05/15 11:08:39;;;;;;;1999.90;999.90;;;18.80;99.90;;;;;;5084347;28;20016;-76
2023/05/15 11:11:05;;;;;;;1999.90;999.90;;;18.80;99.90;;;;;;5090285;28;20160;-76
2023/05/15 11:14:11;;;;;;;1999.90;999.90;;;19.20;99.90;;;;;;5089814;28;20550;-76
2023/05/15 11:17:02;;;;;;;1999.90;999.90;;;19.50;99.90;;;;;;5080328;28;20112;-80
2023/05/15 11:19:28;;;;;;;1999.90;999.90;;;19.60;99.90;;;;;;5075796;28;20077;-79
2023/05/15 11:22:20;;;;;;;1999.90;999.90;;;19.50;99.90;;;;;;5088897;28;20028;-79
2023/05/15 11:24:51;;;;;;;1999.90;999.90;;;19.70;99.90;;;;;;5088892;28;20024;-80
2023/05/15 11:27:25;;;;;;;1999.90;999.90;;;19.70;99.90;;;;;;5087380;28;20043;-75
2023/05/15 11:30:13;;;;;;;1999.90;999.90;;;19.80;99.90;;;;;;5085242;28;20028;-75
2023/05/15 11:32:56;;;;;;;1999.90;999.90;;;19.70;99.90;;;;;;5085988;28;20051;-80
2023/05/15 11:35:42;;;;;;;1999.90;999.90;;;19.80;99.90;;;;;;5084742;28;20020;-80
2023/05/15 11:38:23;;;;;;;1999.90;999.90;;;19.90;99.90;;;;;;5089544;28;20038;-75
2023/05/15 11:40:51;;;;;;;1999.90;999.90;;;20.00;99.90;;;;;;5081516;28;20028;-75
2023/05/15 11:43:21;;;;;;;1999.90;999.90;;;20.20;99.90;;;;;;5080937;28;20533;-75
2023/05/15 11:45:54;;;;;;;1999.90;999.90;;;20.20;99.90;;;;;;5087654;28;20436;-75
2023/05/15 11:48:21;;;;;;;1999.90;999.90;;;20.10;99.90;;;;;;5077980;28;20475;-79
2023/05/15 11:50:48;;;;;;;1999.90;999.90;;;20.20;99.90;;;;;;5082690;28;20387;-80
2023/05/15 11:53:14;;;;;;;1999.90;999.90;;;20.30;99.90;;;;;;5080245;28;20025;-79
2023/05/15 11:55:42;;;;;;;1999.90;999.90;;;20.50;99.90;;;;;;5090420;28;20236;-76
2023/05/15 11:58:18;;;;;;;1999.90;999.90;;;20.70;99.90;;;;;;5087412;28;20479;-80
2023/05/15 12:00:46;;;;;;;1999.90;999.90;;;21.00;99.90;;;;;;5086758;28;20027;-79
2023/05/15 12:03:19;;;;;;;1999.90;999.90;;;21.10;99.90;;;;;;5083733;28;20489;-75